createdAt,value
2022-09-07T00:00:52.707Z,98348.03
2022-09-07T00:03:19.827Z,98337.69
2022-09-07T00:05:47.016Z,98333.44
2022-09-07T00:08:14.058Z,98325.53
2022-09-07T00:10:41.131Z,98328.16
2022-09-07T00:13:08.191Z,98328.16
2022-09-07T00:15:35.235Z,98331.75
2022-09-07T00:18:02.284Z,98333.56
2022-09-07T00:20:29.317Z,98331.75
2022-09-07T00:22:56.447Z,98338.00
2022-09-07T00:25:23.554Z,98351.16
2022-09-07T00:27:50.600Z,98346.88
2022-09-07T00:30:17.690Z,98354.78
2022-09-07T00:32:44.740Z,98350.50
2022-09-07T00:35:12.728Z,98346.22
2022-09-07T00:37:39.850Z,98346.22
2022-09-07T00:40:06.985Z,98347.22
2022-09-07T00:42:34.085Z,98354.28
2022-09-07T00:45:01.178Z,98353.47
2022-09-07T00:47:28.229Z,98359.53
2022-09-07T00:49:55.284Z,98362.31
2022-09-07T00:52:22.370Z,98357.91
2022-09-07T00:54:49.459Z,98362.31
2022-09-07T00:57:16.486Z,98358.03
2022-09-07T00:59:43.622Z,98359.84
2022-09-07T01:02:12.089Z,98354.41
2022-09-07T01:04:39.196Z,98356.41
2022-09-07T01:07:06.237Z,98355.59
2022-09-07T01:09:33.282Z,98352.97
2022-09-07T01:12:00.607Z,98346.88
2022-09-07T01:14:27.967Z,98346.06
2022-09-07T01:16:55.046Z,98339.97
2022-09-07T01:19:22.090Z,98348.69
2022-09-07T01:21:49.131Z,98348.69
2022-09-07T01:24:16.820Z,98348.84
2022-09-07T01:26:43.960Z,98354.25
2022-09-07T01:29:11.059Z,98355.09
2022-09-07T01:31:38.175Z,98349.00
2022-09-07T01:34:05.222Z,98357.81
2022-09-07T01:36:32.286Z,98357.81
2022-09-07T01:38:59.340Z,98344.84
2022-09-07T01:41:26.481Z,98343.88
2022-09-07T01:43:53.518Z,98343.22
2022-09-07T01:46:20.609Z,98335.34
2022-09-07T01:48:47.743Z,98348.47
2022-09-07T01:51:14.906Z,98339.78
2022-09-07T01:53:41.949Z,98333.66
2022-09-07T01:56:08.979Z,98332.84
2022-09-07T01:58:36.024Z,98330.22
2022-09-07T02:01:03.082Z,98324.16
2022-09-07T02:03:30.208Z,98319.88
2022-09-07T02:05:58.603Z,98324.31
2022-09-07T02:08:25.779Z,98320.88
2022-09-07T02:10:52.973Z,98330.41
2022-09-07T02:13:20.011Z,98328.75
2022-09-07T02:15:47.109Z,98332.34
2022-09-07T02:18:14.339Z,98330.56
2022-09-07T02:20:41.377Z,98325.31
2022-09-07T02:23:08.441Z,98328.91
2022-09-07T02:25:35.530Z,98333.34
2022-09-07T02:28:02.608Z,98348.28
2022-09-07T02:30:29.727Z,98348.28
2022-09-07T02:32:56.771Z,98339.59
2022-09-07T02:35:23.828Z,98339.59
2022-09-07T02:37:50.890Z,98343.22
2022-09-07T02:40:17.953Z,98344.16
2022-09-07T02:42:45.024Z,98344.97
2022-09-07T02:45:12.072Z,98345.97
2022-09-07T02:47:39.206Z,98350.41
2022-09-07T02:50:06.283Z,98352.22
2022-09-07T02:52:33.324Z,98353.03
2022-09-07T02:55:00.455Z,98363.56
2022-09-07T02:57:27.627Z,98356.66
2022-09-07T02:59:54.687Z,98360.28
2022-09-07T03:02:21.858Z,98363.72
2022-09-07T03:04:49.003Z,98362.91
2022-09-07T03:07:16.069Z,98355.97
2022-09-07T03:09:43.140Z,98353.34
2022-09-07T03:12:10.265Z,98348.09
2022-09-07T03:14:37.351Z,98343.84
2022-09-07T03:17:04.415Z,98343.00
2022-09-07T03:26:52.118Z,98350.09
2022-09-07T03:29:19.169Z,98346.78
2022-09-07T03:31:46.280Z,98337.25
2022-09-07T03:34:13.368Z,98328.56
2022-09-07T03:36:40.518Z,98328.56
2022-09-07T03:39:07.583Z,98325.13
2022-09-07T03:41:34.634Z,98330.38
2022-09-07T03:44:01.700Z,98335.63
2022-09-07T03:46:28.825Z,98339.22
2022-09-07T03:48:55.941Z,98341.00
2022-09-07T03:51:23.003Z,98333.94
2022-09-07T03:53:51.336Z,98328.88
2022-09-07T03:56:18.436Z,98322.63
2022-09-07T03:58:45.564Z,98321.00
2022-09-07T04:01:12.744Z,98314.91
2022-09-07T04:03:39.867Z,98314.91
2022-09-07T04:06:06.916Z,98319.34
2022-09-07T04:08:33.976Z,98320.31
2022-09-07T04:11:01.079Z,98323.78
2022-09-07T04:13:28.156Z,98328.19
2022-09-07T04:15:55.205Z,98316.06
2022-09-07T04:18:22.317Z,98323.94
2022-09-07T04:20:50.789Z,98321.31
2022-09-07T04:23:17.846Z,98324.91
2022-09-07T04:25:44.900Z,98338.88
2022-09-07T04:28:11.980Z,98353.81
2022-09-07T04:30:39.064Z,98353.00
2022-09-07T04:33:06.172Z,98342.50
2022-09-07T04:35:33.458Z,98349.56
2022-09-07T04:38:00.497Z,98359.22
2022-09-07T04:40:27.575Z,98350.50
2022-09-07T04:42:54.646Z,98353.16
2022-09-07T04:45:21.704Z,98362.84
2022-09-07T04:47:48.837Z,98368.09
2022-09-07T04:50:16.903Z,98367.25
2022-09-07T04:52:44.028Z,98369.91
2022-09-07T04:55:11.122Z,98363.00
2022-09-07T04:57:38.209Z,98355.13
2022-09-07T05:00:07.969Z,98360.38
2022-09-07T05:02:35.134Z,98363.00
2022-09-07T05:05:03.023Z,98355.13
2022-09-07T05:07:30.175Z,98359.56
2022-09-07T05:09:57.388Z,98368.41
2022-09-07T05:12:24.445Z,98367.56
2022-09-07T05:14:51.521Z,98374.47
2022-09-07T05:17:19.396Z,98368.41
2022-09-07T05:19:46.474Z,98369.38
2022-09-07T05:22:13.560Z,98364.13
2022-09-07T05:24:40.654Z,98354.63
2022-09-07T05:27:07.784Z,98355.44
2022-09-07T05:32:22.044Z,98359.88
2022-09-07T05:34:52.290Z,98361.69
2022-09-07T05:37:19.994Z,98359.88
2022-09-07T05:39:47.662Z,98355.59
2022-09-07T05:42:15.048Z,98352.97
2022-09-07T05:47:29.621Z,98360.84
2022-09-07T05:49:57.162Z,98356.56
2022-09-07T05:52:24.443Z,98357.38
2022-09-07T05:54:54.322Z,98353.13
2022-09-07T05:57:23.681Z,98351.31
2022-09-07T05:59:50.770Z,98345.25
2022-09-07T06:02:18.037Z,98346.88
2022-09-07T06:04:45.215Z,98350.50
2022-09-07T06:07:28.534Z,98353.13
2022-09-07T06:12:45.532Z,98347.03
2022-09-07T06:15:15.588Z,98349.50
2022-09-07T06:17:45.358Z,98347.03
2022-09-07T06:20:12.474Z,98348.84
2022-09-07T06:22:39.540Z,98356.72
2022-09-07T06:25:06.615Z,98361.16
2022-09-07T06:27:33.715Z,98358.53
2022-09-07T06:30:00.799Z,98354.94
2022-09-07T06:32:43.574Z,98357.56
2022-09-07T06:35:11.643Z,98354.94
2022-09-07T06:37:38.795Z,98362.63
2022-09-07T06:40:05.934Z,98365.44
2022-09-07T06:42:33.243Z,98354.09
2022-09-07T06:45:00.344Z,98354.94
2022-09-07T06:47:27.439Z,98344.41
2022-09-07T06:49:54.495Z,98357.56
2022-09-07T06:52:21.791Z,98357.56
2022-09-07T06:55:04.408Z,98356.72
2022-09-07T06:57:31.491Z,98346.88
2022-09-07T06:59:58.752Z,98353.13
2022-09-07T07:02:25.835Z,98351.47
2022-09-07T07:04:52.963Z,98361.00
2022-09-07T07:07:20.047Z,98361.81
2022-09-07T07:09:47.111Z,98356.56
2022-09-07T07:12:14.166Z,98355.75
2022-09-07T07:14:44.915Z,98358.22
2022-09-07T07:17:12.474Z,98354.75
2022-09-07T07:19:39.593Z,98359.06
2022-09-07T07:24:53.690Z,98358.22
2022-09-07T07:27:22.074Z,98352.81
2022-09-07T07:29:49.929Z,98354.63
2022-09-07T07:32:17.045Z,98351.00
2022-09-07T07:34:44.059Z,98356.25
2022-09-07T07:37:11.090Z,98362.31
2022-09-07T07:42:25.847Z,98366.44
2022-09-07T07:47:39.915Z,98367.94
2022-09-07T07:55:43.749Z,98377.16
2022-09-07T07:58:11.239Z,98374.53
2022-09-07T08:00:53.897Z,98382.41
2022-09-07T08:03:22.273Z,98380.44
2022-09-07T08:05:49.375Z,98388.00
2022-09-07T08:08:16.478Z,98399.31
2022-09-07T08:10:43.617Z,98397.50
2022-09-07T08:13:10.701Z,98402.63
2022-09-07T08:15:38.558Z,98402.63
2022-09-07T08:18:05.583Z,98394.56
2022-09-07T08:20:32.625Z,98393.59
2022-09-07T08:22:59.875Z,98395.25
2022-09-07T08:25:27.218Z,98393.44
2022-09-07T08:27:54.289Z,98406.41
2022-09-07T08:30:22.319Z,98401.00
2022-09-07T08:32:49.323Z,98407.91
2022-09-07T08:35:16.398Z,98411.34
2022-09-07T08:37:43.400Z,98419.06
2022-09-07T08:40:10.470Z,98415.47
2022-09-07T08:42:37.709Z,98411.88
2022-09-07T08:45:04.711Z,98412.69
2022-09-07T08:47:31.802Z,98411.69
2022-09-07T08:49:58.797Z,98413.34
2022-09-07T08:52:25.820Z,98413.34
2022-09-07T08:54:52.840Z,98410.56
2022-09-07T08:57:21.288Z,98409.56
2022-09-07T08:59:48.531Z,98410.38
2022-09-07T09:02:35.209Z,98411.25
2022-09-07T09:05:18.870Z,98414.72
2022-09-07T09:07:46.223Z,98413.72
2022-09-07T09:10:13.240Z,98407.47
2022-09-07T09:12:40.516Z,98407.47
2022-09-07T09:15:07.523Z,98405.66
2022-09-07T09:17:34.597Z,98403.88
2022-09-07T09:20:01.655Z,98397.63
2022-09-07T09:22:28.703Z,98408.16
2022-09-07T09:24:55.774Z,98400.28
2022-09-07T09:27:22.871Z,98396.47
2022-09-07T09:29:49.897Z,98394.53
2022-09-07T09:32:16.908Z,98394.53
2022-09-07T09:34:44.054Z,98393.53
2022-09-07T09:37:11.077Z,98390.09
2022-09-07T09:39:38.429Z,98381.38
2022-09-07T09:42:05.480Z,98381.38
2022-09-07T09:44:32.532Z,98386.47
2022-09-07T09:49:47.855Z,98379.56
2022-09-07T09:52:33.645Z,98375.94
2022-09-07T09:55:33.823Z,98375.13
2022-09-07T10:01:21.252Z,98386.97
2022-09-07T10:06:11.389Z,98375.00
2022-09-07T10:08:38.480Z,98380.06
2022-09-07T10:11:05.503Z,98380.88
2022-09-07T10:13:32.610Z,98384.19
2022-09-07T10:15:59.713Z,98378.13
2022-09-07T10:18:26.787Z,98377.13
2022-09-07T10:20:53.913Z,98371.06
2022-09-07T10:23:20.972Z,98374.50
2022-09-07T10:25:47.990Z,98371.88
2022-09-07T10:28:15.497Z,98364.81
2022-09-07T10:30:42.718Z,98363.81
2022-09-07T10:33:10.348Z,98358.56
2022-09-07T10:35:37.374Z,98356.75
2022-09-07T10:38:04.558Z,98354.09
2022-09-07T10:40:31.890Z,98350.53
2022-09-07T10:45:45.897Z,98357.41
2022-09-07T10:48:12.942Z,98351.34
2022-09-07T10:50:40.078Z,98345.09
2022-09-07T10:53:36.574Z,98331.94
2022-09-07T10:55:54.102Z,98339.81
2022-09-07T10:58:21.147Z,98335.56
2022-09-07T11:00:48.160Z,98330.94
2022-09-07T11:03:30.586Z,98330.13
2022-09-07T11:05:57.659Z,98326.53
2022-09-07T11:08:24.778Z,98327.34
2022-09-07T11:10:51.779Z,98329.97
2022-09-07T11:13:18.804Z,98330.63
2022-09-07T11:15:45.893Z,98323.72
2022-09-07T11:18:13.026Z,98318.16
2022-09-07T11:20:40.038Z,98314.22
2022-09-07T11:23:07.239Z,98304.69
2022-09-07T11:25:34.350Z,98301.22
2022-09-07T11:28:01.350Z,98301.22
2022-09-07T11:30:28.441Z,98302.19
2022-09-07T11:32:55.461Z,98302.19
2022-09-07T11:35:22.467Z,98296.94
2022-09-07T11:37:49.511Z,98295.31
2022-09-07T11:40:16.626Z,98302.38
2022-09-07T11:42:44.099Z,98298.44
2022-09-07T11:45:11.352Z,98296.44
2022-09-07T11:47:38.923Z,98295.31
2022-09-07T11:50:06.046Z,98294.31
2022-09-07T11:52:33.176Z,98294.47
2022-09-07T11:55:00.176Z,98289.22
2022-09-07T11:57:27.219Z,98290.84
2022-09-07T11:59:54.226Z,98280.19
2022-09-07T12:02:32.239Z,98279.69
2022-09-07T12:05:08.265Z,98266.38
2022-09-07T12:07:35.266Z,98259.28
2022-09-07T12:10:02.402Z,98266.84
2022-09-07T12:12:29.496Z,98263.09
2022-09-07T12:14:56.500Z,98259.44
2022-09-07T12:17:23.840Z,98269.81
2022-09-07T12:19:50.888Z,98259.31
2022-09-07T12:22:17.896Z,98257.50
2022-09-07T12:24:45.014Z,98261.75
2022-09-07T12:27:12.081Z,98250.25
2022-09-07T12:29:45.517Z,98251.06
2022-09-07T12:34:59.655Z,98249.09
2022-09-07T12:37:26.782Z,98254.19
2022-09-07T12:39:57.698Z,98244.47
2022-09-07T12:42:32.471Z,98245.31
2022-09-07T12:44:59.839Z,98242.69
2022-09-07T12:47:26.828Z,98236.44
2022-09-07T12:49:53.893Z,98239.69
2022-09-07T12:52:20.989Z,98236.59
2022-09-07T12:54:59.703Z,98237.56
2022-09-07T12:57:35.127Z,98236.72
2022-09-07T13:00:02.257Z,98229.66
2022-09-07T13:02:29.398Z,98229.50
2022-09-07T13:04:56.434Z,98230.31
2022-09-07T13:07:23.471Z,98226.88
2022-09-07T13:09:50.535Z,98229.31
2022-09-07T13:12:52.885Z,98226.69
2022-09-07T13:15:05.650Z,98217.81
2022-09-07T13:17:34.038Z,98230.97
2022-09-07T13:20:01.331Z,98221.28
2022-09-07T13:22:28.615Z,98229.00
2022-09-07T13:24:56.877Z,98222.91
2022-09-07T13:27:23.926Z,98214.72
2022-09-07T13:29:50.970Z,98207.75
2022-09-07T13:32:17.987Z,98212.91
2022-09-07T13:34:45.181Z,98209.28
2022-09-07T13:37:12.189Z,98204.84
2022-09-07T13:39:39.334Z,98196.13
2022-09-07T13:42:06.410Z,98192.50
2022-09-07T13:44:33.434Z,98192.34
2022-09-07T13:47:00.460Z,98190.53
2022-09-07T13:49:27.564Z,98193.97
2022-09-07T13:51:54.558Z,98199.25
2022-09-07T13:54:21.593Z,98195.59
2022-09-07T13:56:48.652Z,98197.75
2022-09-07T13:59:15.686Z,98192.16
2022-09-07T14:01:42.799Z,98194.28
2022-09-07T14:04:11.904Z,98196.75
2022-09-07T14:06:39.053Z,98193.78
2022-09-07T14:09:06.110Z,98188.69
2022-09-07T14:11:33.122Z,98187.22
2022-09-07T14:14:00.146Z,98195.13
2022-09-07T14:16:27.207Z,98181.97
2022-09-07T14:18:54.251Z,98175.84
2022-09-07T14:21:21.568Z,98170.44
2022-09-07T14:23:59.127Z,98173.22
2022-09-07T14:26:27.275Z,98169.44
2022-09-07T14:28:54.415Z,98172.88
2022-09-07T14:31:21.563Z,98173.88
2022-09-07T14:33:54.588Z,98170.59
2022-09-07T14:36:42.345Z,98168.81
2022-09-07T14:39:09.045Z,98167.81
2022-09-07T14:41:38.474Z,98166.00
2022-09-07T14:44:06.478Z,98159.38
2022-09-07T14:46:36.265Z,98159.38
2022-09-07T14:49:03.311Z,98156.75
2022-09-07T14:51:36.066Z,98152.31
2022-09-07T14:54:03.877Z,98151.31
2022-09-07T14:56:31.540Z,98144.25
2022-09-07T14:58:58.732Z,98136.38
2022-09-07T15:01:41.296Z,98138.16
2022-09-07T15:04:08.410Z,98139.00
2022-09-07T15:09:22.597Z,98140.63
2022-09-07T15:11:49.613Z,98133.72
2022-09-07T15:14:16.819Z,98141.63
2022-09-07T15:16:44.482Z,98133.53
2022-09-07T15:19:11.588Z,98130.91
2022-09-07T15:21:39.667Z,98117.94
2022-09-07T15:24:07.397Z,98118.56
2022-09-07T15:29:22.037Z,98111.50
2022-09-07T15:32:01.187Z,98106.22
2022-09-07T15:34:32.335Z,98113.97
2022-09-07T15:37:00.826Z,98111.34
2022-09-07T15:39:29.970Z,98108.69
2022-09-07T15:41:57.787Z,98109.50
2022-09-07T15:44:27.929Z,98108.69
2022-09-07T15:49:49.322Z,98100.63
2022-09-07T15:52:17.418Z,98101.44
2022-09-07T15:54:44.521Z,98108.31
2022-09-07T15:59:58.640Z,98106.53
2022-09-07T16:05:12.830Z,98105.53
2022-09-07T16:10:31.176Z,98102.91
2022-09-07T16:13:02.918Z,98101.91
2022-09-07T16:15:30.891Z,98101.91
2022-09-07T16:17:58.641Z,98094.00
2022-09-07T16:20:25.741Z,98091.38
2022-09-07T16:25:41.746Z,98086.78
2022-09-07T16:28:08.799Z,98085.13
2022-09-07T16:30:35.844Z,98079.69
2022-09-07T16:33:03.069Z,98082.31
2022-09-07T16:35:30.104Z,98080.50
2022-09-07T16:40:44.172Z,98088.41
2022-09-07T16:43:11.207Z,98088.22
2022-09-07T16:48:25.850Z,98084.78
2022-09-07T16:51:00.315Z,98082.94
2022-09-07T16:53:27.606Z,98078.50
2022-09-07T16:55:54.604Z,98068.97
2022-09-07T16:58:37.918Z,98067.16
2022-09-07T17:01:05.192Z,98075.88
2022-09-07T17:03:32.367Z,98076.06
2022-09-07T17:05:59.430Z,98070.59
2022-09-07T17:08:26.521Z,98067.16
2022-09-07T17:10:53.632Z,98067.16
2022-09-07T17:13:20.686Z,98070.78
2022-09-07T17:15:47.688Z,98067.97
2022-09-07T17:18:15.616Z,98071.59
2022-09-07T17:20:42.901Z,98077.06
2022-09-07T17:23:09.942Z,98073.63
2022-09-07T17:25:37.897Z,98072.59
2022-09-07T17:28:04.972Z,98069.16
2022-09-07T17:30:32.007Z,98065.53
2022-09-07T17:32:59.049Z,98061.06
2022-09-07T17:35:26.171Z,98062.91
2022-09-07T17:37:53.186Z,98058.63
2022-09-07T17:40:20.208Z,98059.63
2022-09-07T17:45:34.345Z,98060.44
2022-09-07T17:48:01.459Z,98063.91
2022-09-07T17:50:28.506Z,98066.53
2022-09-07T17:52:55.553Z,98061.41
2022-09-07T17:55:22.576Z,98064.91
2022-09-07T17:57:49.699Z,98071.13
2022-09-07T18:00:16.798Z,98079.84
2022-09-07T18:02:43.871Z,98084.97
2022-09-07T18:05:11.040Z,98086.94
2022-09-07T18:07:38.081Z,98092.19
2022-09-07T18:10:05.153Z,98085.31
2022-09-07T18:12:32.895Z,98085.47
2022-09-07T18:15:00.161Z,98092.38
2022-09-07T18:17:27.294Z,98102.91
2022-09-07T18:19:54.649Z,98098.66
2022-09-07T18:22:21.690Z,98105.53
2022-09-07T18:24:48.795Z,98110.81
2022-09-07T18:27:15.909Z,98113.44
2022-09-07T18:29:44.544Z,98116.06
2022-09-07T18:32:11.624Z,98117.06
2022-09-07T18:34:40.676Z,98124.13
2022-09-07T18:37:08.271Z,98118.84
2022-09-07T18:39:35.706Z,98112.78
2022-09-07T18:42:02.876Z,98110.16
2022-09-07T18:47:23.126Z,98109.34
2022-09-07T18:49:55.024Z,98114.59
2022-09-07T18:55:09.992Z,98108.69
2022-09-07T18:57:37.282Z,98108.69
2022-09-07T19:00:04.763Z,98108.69
2022-09-07T19:02:32.170Z,98121.88
2022-09-07T19:07:46.406Z,98127.13
2022-09-07T19:10:14.682Z,98126.31
2022-09-07T19:12:45.645Z,98122.84
2022-09-07T19:15:13.509Z,98121.03
2022-09-07T19:17:40.530Z,98126.47
2022-09-07T19:20:07.861Z,98127.13
2022-09-07T19:22:34.875Z,98118.41
2022-09-07T19:25:01.880Z,98115.59
2022-09-07T19:27:29.174Z,98117.41
2022-09-07T19:29:56.176Z,98108.03
2022-09-07T19:32:23.252Z,98116.59
2022-09-07T19:34:54.584Z,98106.22
2022-09-07T19:37:25.692Z,98110.50
2022-09-07T19:39:55.206Z,98109.66
2022-09-07T19:42:23.604Z,98106.88
2022-09-07T19:44:50.711Z,98110.00
2022-09-07T19:47:17.823Z,98110.63
2022-09-07T19:49:44.892Z,98114.91
2022-09-07T19:52:13.423Z,98112.91
2022-09-07T19:54:40.693Z,98107.66
2022-09-07T19:57:07.703Z,98101.56
2022-09-07T19:59:34.715Z,98105.81
2022-09-07T20:02:01.862Z,98098.13
2022-09-07T20:04:28.977Z,98098.13
2022-09-07T20:06:56.391Z,98105.00
2022-09-07T20:09:23.464Z,98106.84
2022-09-07T20:11:50.793Z,98108.66
2022-09-07T20:14:17.857Z,98109.47
2022-09-07T20:16:44.944Z,98105.00
2022-09-07T20:19:12.063Z,98103.19
2022-09-07T20:21:39.111Z,98099.75
2022-09-07T20:24:06.166Z,98102.38
2022-09-07T20:26:33.243Z,98087.59
2022-09-07T20:31:47.463Z,98096.31
2022-09-07T20:34:14.663Z,98101.56
2022-09-07T20:36:41.724Z,98097.31
2022-09-07T20:39:08.735Z,98093.19
2022-09-07T20:41:35.859Z,98096.00
2022-09-07T20:44:02.854Z,98090.91
2022-09-07T20:46:30.324Z,98091.09
2022-09-07T20:48:57.610Z,98094.53
2022-09-07T20:51:24.699Z,98086.84
2022-09-07T20:53:51.761Z,98086.84
2022-09-07T20:56:18.815Z,98079.09
2022-09-07T20:58:45.917Z,98081.72
2022-09-07T21:01:12.998Z,98091.44
2022-09-07T21:03:46.014Z,98091.44
2022-09-07T21:06:16.055Z,98089.81
2022-09-07T21:08:43.121Z,98087.16
2022-09-07T21:11:10.159Z,98083.72
2022-09-07T21:13:37.271Z,98081.09
2022-09-07T21:16:05.484Z,98074.97
2022-09-07T21:18:32.638Z,98068.09
2022-09-07T21:21:20.171Z,98061.53
2022-09-07T21:23:47.799Z,98062.00
2022-09-07T21:26:14.882Z,98069.91
2022-09-07T21:28:41.973Z,98060.38
2022-09-07T21:31:09.139Z,98057.75
2022-09-07T21:33:36.335Z,98061.66
2022-09-07T21:36:03.590Z,98058.69
2022-09-07T21:38:30.687Z,98056.88
2022-09-07T21:40:57.772Z,98056.22
2022-09-07T21:43:24.801Z,98051.28
2022-09-07T21:45:51.859Z,98042.44
2022-09-07T21:48:18.911Z,98044.34
2022-09-07T21:50:46.827Z,98034.47
2022-09-07T21:53:13.938Z,98035.28
2022-09-07T21:55:40.943Z,98036.28
2022-09-07T21:58:07.990Z,98034.47
2022-09-07T22:00:35.125Z,98038.91
2022-09-07T22:03:02.328Z,98038.91
2022-09-07T22:05:29.382Z,98041.22
2022-09-07T22:07:56.716Z,98046.28
2022-09-07T22:10:23.813Z,98041.84
2022-09-07T22:12:50.810Z,98040.84
2022-09-07T22:15:17.883Z,98040.00
2022-09-07T22:17:46.410Z,98048.56
2022-09-07T22:20:13.596Z,98052.84
2022-09-07T22:22:40.586Z,98062.72
2022-09-07T22:25:07.823Z,98074.59
2022-09-07T22:27:35.145Z,98079.50
2022-09-07T22:30:02.528Z,98069.78
2022-09-07T22:32:29.575Z,98056.63
2022-09-07T22:34:56.611Z,98054.81
2022-09-07T22:37:23.608Z,98058.63
2022-09-07T22:39:50.667Z,98052.56
2022-09-07T22:42:17.736Z,98050.06
2022-09-07T22:44:44.753Z,98043.19
2022-09-07T22:47:12.027Z,98035.28
2022-09-07T22:49:39.107Z,98031.03
2022-09-07T22:52:06.124Z,98010.94
2022-09-07T22:54:33.186Z,98008.69
2022-09-07T22:57:00.294Z,98003.91
2022-09-07T22:59:27.307Z,98004.44
2022-09-07T23:01:54.315Z,97996.75
2022-09-07T23:04:21.551Z,97997.09
2022-09-07T23:06:48.614Z,97996.44
2022-09-07T23:09:15.630Z,97992.50
2022-09-07T23:11:42.639Z,97994.34
2022-09-07T23:14:09.866Z,97985.81
2022-09-07T23:16:37.109Z,97980.69
2022-09-07T23:19:04.187Z,97983.50
2022-09-07T23:21:31.212Z,97973.13
2022-09-07T23:23:58.289Z,97974.13
2022-09-07T23:26:25.346Z,97976.13
2022-09-07T23:28:52.669Z,97981.41
2022-09-07T23:31:19.930Z,97978.91
2022-09-07T23:33:47.024Z,97973.84
2022-09-07T23:36:14.295Z,97970.41
2022-09-07T23:38:41.376Z,97972.22
2022-09-07T23:41:08.377Z,97963.66
2022-09-07T23:43:35.501Z,97954.97
2022-09-07T23:46:02.715Z,97961.22
2022-09-07T23:48:29.820Z,97962.19
2022-09-07T23:50:56.843Z,97958.94
2022-09-07T23:53:23.923Z,97958.13
2022-09-07T23:55:50.934Z,97954.69
2022-09-07T23:58:17.953Z,97950.38
